Time;durP1;ratioP1;P1;durP2;ratioP2;P2;SDS_P1;SDS_P2;PMS_P1;PMS_P2;Temp;Humidity;BMP_temperature;BMP_pressure;BME280_temperature;BME280_humidity;BME280_pressure;Samples;Min_cycle;Max_cycle;Signal;HPM_P1;HPM_P2
2020/12/01 00:01:48;;;;;;;49.93;26.80;;;;;;;-1.39;77.34;102375.04;1765948;80;26100;-58
2020/12/01 00:04:16;;;;;;;51.83;27.55;;;;;;;-1.37;77.35;102365.34;1785264;80;25656;-58
2020/12/01 00:06:45;;;;;;;59.73;28.92;;;;;;;-1.36;77.33;102373.69;1755293;80;25963;-58
2020/12/01 00:09:15;;;;;;;58.17;27.48;;;;;;;-1.33;77.27;102372.34;1754244;81;25671;-58
2020/12/01 00:11:42;;;;;;;62.70;28.98;;;;;;;-1.32;77.18;102364.85;1754272;81;28474;-58
2020/12/01 00:14:10;;;;;;;58.00;28.38;;;;;;;-1.26;77.17;102368.72;1757689;80;25787;-57
2020/12/01 00:16:39;;;;;;;59.48;28.75;;;;;;;-1.18;77.28;102364.66;1781876;80;25733;-57
2020/12/01 00:19:07;;;;;;;54.38;27.37;;;;;;;-1.12;77.13;102364.57;1754346;81;25663;-57
2020/12/01 00:21:35;;;;;;;58.87;28.62;;;;;;;-1.07;77.30;102368.47;1777557;80;25711;-57
2020/12/01 00:24:03;;;;;;;63.05;30.40;;;;;;;-0.98;77.06;102372.73;1785333;80;27464;-58
2020/12/01 00:26:31;;;;;;;61.37;27.90;;;;;;;-0.93;76.81;102364.73;1774466;80;26148;-57
2020/12/01 00:28:59;;;;;;;56.60;28.85;;;;;;;-0.89;76.91;102370.42;1751065;80;25648;-57
2020/12/01 00:31:27;;;;;;;58.52;30.25;;;;;;;-0.86;76.75;102373.88;1762150;81;25692;-57
2020/12/01 00:33:55;;;;;;;60.65;31.15;;;;;;;-0.84;76.54;102365.49;1762187;81;26111;-57
2020/12/01 00:36:28;;;;;;;60.20;29.45;;;;;;;-0.80;76.41;102371.59;1789141;79;28280;-57
2020/12/01 00:38:56;;;;;;;61.85;33.45;;;;;;;-0.81;76.35;102372.49;1770243;81;26089;-57
2020/12/01 00:41:24;;;;;;;59.63;29.20;;;;;;;-0.81;76.17;102372.49;1777990;79;25593;-57
2020/12/01 00:43:54;;;;;;;58.33;30.05;;;;;;;-0.78;76.29;102368.49;1789724;79;25662;-57
2020/12/01 00:46:23;;;;;;;62.80;31.15;;;;;;;-0.76;76.26;102364.03;1783720;79;25759;-57
2020/12/01 00:48:51;;;;;;;51.35;27.45;;;;;;;-0.81;76.14;102362.78;1769935;81;27406;-57
2020/12/01 00:51:20;;;;;;;61.45;29.75;;;;;;;-0.85;76.14;102358.45;1769990;81;25648;-57
2020/12/01 00:53:48;;;;;;;54.98;27.65;;;;;;;-0.87;76.36;102363.34;1781638;79;25690;-57
2020/12/01 00:56:23;;;;;;;52.67;28.73;;;;;;;-0.90;76.13;102369.98;1799697;79;26403;-57
2020/12/01 00:58:51;;;;;;;60.00;30.62;;;;;;;-0.94;76.21;102370.48;1770132;81;26195;-57
2020/12/01 01:01:21;;;;;;;59.30;28.30;;;;;;;-0.98;76.27;102364.38;1769305;81;27639;-58
2020/12/01 01:03:49;;;;;;;59.75;30.32;;;;;;;-0.98;76.28;102370.09;1770741;79;26166;-58
2020/12/01 01:06:17;;;;;;;59.15;29.90;;;;;;;-1.00;76.42;102362.66;1786931;79;25520;-57
2020/12/01 01:08:44;;;;;;;60.45;30.40;;;;;;;-1.03;76.30;102366.66;1801753;79;26920;-57
2020/12/01 01:11:12;;;;;;;56.02;29.20;;;;;;;-1.03;76.50;102371.47;1799716;79;25666;-57
2020/12/01 01:13:41;;;;;;;64.10;30.88;;;;;;;-1.03;76.38;102368.83;1789826;79;27593;-57
2020/12/01 01:16:09;;;;;;;58.85;31.50;;;;;;;-1.08;76.08;102367.18;1782899;79;26532;-57
2020/12/01 01:18:37;;;;;;;59.67;29.80;;;;;;;-1.12;76.31;102367.67;1801407;79;25425;-57
2020/12/01 01:21:05;;;;;;;64.60;31.90;;;;;;;-1.16;76.30;102370.78;1801364;79;25712;-57
2020/12/01 01:23:35;;;;;;;63.42;31.10;;;;;;;-1.18;76.34;102368.63;1792784;79;25683;-57
2020/12/01 01:26:03;;;;;;;63.15;31.07;;;;;;;-1.19;76.51;102366.88;1777465;79;28881;-57
2020/12/01 01:28:31;;;;;;;72.50;33.90;;;;;;;-1.22;76.41;102371.33;1796454;79;25589;-57
2020/12/01 01:30:59;;;;;;;58.65;28.87;;;;;;;-1.26;76.38;102366.08;1730225;82;25590;-57
2020/12/01 01:33:27;;;;;;;60.78;30.55;;;;;;;-1.25;76.72;102366.94;1719006;82;25692;-57
2020/12/01 01:35:55;;;;;;;57.25;30.45;;;;;;;-1.29;76.53;102367.43;1723923;82;26115;-57
2020/12/01 01:38:23;;;;;;;62.13;30.20;;;;;;;-1.29;76.90;102366.57;1711947;83;26989;-57
2020/12/01 01:40:57;;;;;;;57.90;28.40;;;;;;;-1.32;76.63;102364.85;1712096;82;25654;-57
2020/12/01 01:43:25;;;;;;;59.35;30.02;;;;;;;-1.38;76.90;102370.65;1780099;79;25715;-57
2020/12/01 01:45:53;;;;;;;74.92;31.00;;;;;;;-1.48;76.83;102369.45;1787660;79;25703;-57
2020/12/01 01:48:25;;;;;;;62.70;30.72;;;;;;;-1.55;76.85;102365.56;1811039;79;25737;-57
2020/12/01 01:51:13;;;;;;;71.17;30.97;;;;;;;-1.58;77.27;102370.02;1810956;79;28441;-57
2020/12/01 01:53:48;;;;;;;61.58;27.98;;;;;;;-1.59;77.37;102365.63;1790063;79;26424;-58
2020/12/01 01:56:22;;;;;;;61.13;28.30;;;;;;;-1.59;77.40;102363.41;1779083;79;25739;-58
2020/12/01 01:58:52;;;;;;;69.05;31.40;;;;;;;-1.61;77.39;102365.19;1778984;80;25659;-58
2020/12/01 02:01:25;;;;;;;51.77;25.60;;;;;;;-1.62;77.54;102365.66;1779152;79;25427;-57
2020/12/01 02:03:57;;;;;;;63.98;28.20;;;;;;;-1.60;77.73;102361.23;1777813;79;27524;-58
2020/12/01 02:06:42;;;;;;;64.25;30.50;;;;;;;-1.61;77.57;102368.72;1779007;79;25655;-58
2020/12/01 02:09:35;;;;;;;54.90;25.80;;;;;;;-1.59;77.76;102356.81;1779223;79;25746;-58
2020/12/01 02:12:06;;;;;;;62.45;30.17;;;;;;;-1.58;77.80;102363.84;1803433;79;25437;-58
2020/12/01 02:14:39;;;;;;;56.83;28.30;;;;;;;-1.55;77.77;102358.97;1800688;79;26237;-58
2020/12/01 02:17:27;;;;;;;56.53;28.77;;;;;;;-1.53;77.68;102361.16;1778952;79;27534;-58
2020/12/01 02:20:00;;;;;;;58.73;29.40;;;;;;;-1.53;77.63;102366.43;1810576;79;25666;-58
2020/12/01 02:22:28;;;;;;;59.53;29.60;;;;;;;-1.47;77.73;102363.70;1807821;79;25735;-58
2020/12/01 02:24:57;;;;;;;58.85;29.45;;;;;;;-1.48;77.58;102359.34;1796917;79;26401;-59
2020/12/01 02:27:27;;;;;;;64.05;28.95;;;;;;;-1.54;77.31;102360.30;1787307;78;25539;-58
2020/12/01 02:29:58;;;;;;;59.15;30.85;;;;;;;-1.62;77.69;102360.84;1803319;77;28416;-58
2020/12/01 02:32:28;;;;;;;57.13;27.13;;;;;;;-1.69;77.53;102361.34;1792225;80;25816;-58
2020/12/01 02:34:59;;;;;;;55.10;27.77;;;;;;;-1.70;77.95;102362.69;1792525;78;25642;-58
2020/12/01 02:37:29;;;;;;;61.48;32.10;;;;;;;-1.81;77.83;102363.69;1792210;80;25670;-58
2020/12/01 02:40:00;;;;;;;58.45;31.97;;;;;;;-1.89;77.77;102366.39;1798766;78;26155;-58
2020/12/01 02:42:28;;;;;;;58.85;28.23;;;;;;;-1.87;78.21;102361.55;1819638;78;27524;-58
2020/12/01 02:44:57;;;;;;;53.48;28.00;;;;;;;-1.90;77.99;102365.96;1798485;78;25659;-58
2020/12/01 02:47:28;;;;;;;63.48;28.35;;;;;;;-2.00;77.83;102362.98;1807151;79;26318;-58
2020/12/01 02:49:56;;;;;;;57.50;27.90;;;;;;;-2.03;77.89;102374.91;1812120;78;25696;-58
2020/12/01 02:52:24;;;;;;;53.87;28.60;;;;;;;-2.02;78.16;102366.11;1793712;78;25576;-58
2020/12/01 02:54:53;;;;;;;64.10;29.40;;;;;;;-2.00;78.13;102372.22;1805003;78;28948;-58
2020/12/01 02:57:20;;;;;;;55.30;28.45;;;;;;;-1.97;78.09;102361.65;1792601;78;26093;-58
2020/12/01 02:59:48;;;;;;;47.75;24.02;;;;;;;-1.95;77.86;102367.79;1792211;80;25669;-59
2020/12/01 03:02:16;;;;;;;63.73;27.95;;;;;;;-1.92;77.93;102366.88;1794645;78;25678;-58
2020/12/01 03:04:44;;;;;;;59.60;28.52;;;;;;;-1.96;77.65;102362.51;1802093;78;25419;-58
2020/12/01 03:07:12;;;;;;;47.83;26.77;;;;;;;-1.98;77.63;102369.13;1792914;78;27471;-58
2020/12/01 03:09:40;;;;;;;52.60;26.85;;;;;;;-2.01;77.62;102373.56;1792260;78;25426;-58
2020/12/01 03:12:07;;;;;;;53.75;26.85;;;;;;;-1.98;77.93;102370.45;1792860;78;25653;-58
2020/12/01 03:14:36;;;;;;;55.80;28.87;;;;;;;-1.93;78.00;102364.66;1816909;78;25737;-58
2020/12/01 03:17:04;;;;;;;58.20;29.52;;;;;;;-1.94;77.70;102368.22;1792137;80;26293;-58
2020/12/01 03:19:32;;;;;;;52.10;27.65;;;;;;;-1.89;77.77;102367.71;1803379;78;27958;-58
2020/12/01 03:22:00;;;;;;;58.25;26.00;;;;;;;-1.95;77.09;102374.81;1806292;78;25671;-58
2020/12/01 03:24:29;;;;;;;57.58;29.35;;;;;;;-2.02;76.96;102371.39;1814783;78;25452;-58
2020/12/01 03:26:57;;;;;;;62.00;29.00;;;;;;;-2.03;77.30;102374.91;1814830;78;26383;-58
2020/12/01 03:29:25;;;;;;;60.23;28.50;;;;;;;-2.02;77.45;102376.66;1810831;78;26629;-58
2020/12/01 03:31:53;;;;;;;56.02;28.75;;;;;;;-1.98;77.70;102376.19;1799513;79;27530;-58
2020/12/01 03:34:21;;;;;;;59.30;28.65;;;;;;;-1.94;77.70;102376.56;1779030;79;25661;-58
2020/12/01 03:36:50;;;;;;;64.58;30.08;;;;;;;-1.96;77.26;102374.38;1779319;79;25456;-58
2020/12/01 03:39:18;;;;;;;54.58;28.05;;;;;;;-2.07;76.66;102374.50;1779476;79;25749;-58
2020/12/01 03:41:45;;;;;;;58.80;28.70;;;;;;;-2.20;76.67;102369.79;1779190;79;25700;-58
2020/12/01 03:44:13;;;;;;;59.13;27.40;;;;;;;-2.24;77.04;102374.22;1779610;79;27368;-58
2020/12/01 03:46:42;;;;;;;56.92;28.85;;;;;;;-2.24;77.33;102373.36;1787824;79;26078;-58
2020/12/01 03:49:10;;;;;;;54.85;27.95;;;;;;;-2.18;77.53;102381.20;1806011;79;25704;-58
2020/12/01 03:51:38;;;;;;;56.88;27.62;;;;;;;-2.10;77.74;102385.06;1810893;79;25713;-58
2020/12/01 03:54:06;;;;;;;52.23;25.55;;;;;;;-2.01;77.63;102387.61;1801882;79;26567;-58
2020/12/01 03:56:34;;;;;;;56.20;27.37;;;;;;;-1.90;77.69;102392.34;1810279;79;27539;-58
2020/12/01 03:59:01;;;;;;;55.10;28.77;;;;;;;-1.79;77.70;102386.08;1765563;80;25593;-58
2020/12/01 04:01:29;;;;;;;54.53;27.17;;;;;;;-1.69;77.64;102387.73;1778930;80;25509;-58
2020/12/01 04:03:57;;;;;;;55.70;26.23;;;;;;;-1.60;77.42;102396.86;1779806;79;26485;-58
2020/12/01 04:06:25;;;;;;;59.48;28.38;;;;;;;-1.57;76.61;102395.95;1803728;79;25834;-58
2020/12/01 04:08:53;;;;;;;58.08;27.05;;;;;;;-1.49;76.83;102405.11;1802681;78;27532;-58
2020/12/01 04:11:24;;;;;;;52.08;24.92;;;;;;;-1.41;76.82;102400.61;1779018;79;25917;-58
2020/12/01 04:13:53;;;;;;;42.62;21.40;;;;;;;-1.37;76.04;102400.98;1785271;79;25699;-59
2020/12/01 04:16:20;;;;;;;48.50;26.07;;;;;;;-1.44;75.29;102396.25;1804181;79;25640;-59
2020/12/01 04:18:48;;;;;;;50.23;23.77;;;;;;;-1.57;74.81;102402.09;1794905;79;25770;-59
2020/12/01 04:21:17;;;;;;;56.68;26.85;;;;;;;-1.67;75.10;102402.22;1778713;80;28394;-58
2020/12/01 04:23:51;;;;;;;45.38;23.92;;;;;;;-1.86;75.58;102403.73;1779016;79;25726;-58
2020/12/01 04:26:14;;;;;;;54.48;27.82;;;;;;;-2.00;75.95;102401.23;1778450;79;25667;-59
2020/12/01 04:28:42;;;;;;;51.33;25.80;;;;;;;-2.10;76.12;102400.46;1788857;78;25982;-58
2020/12/01 04:31:11;;;;;;;52.10;26.33;;;;;;;-2.15;76.24;102397.44;1792780;78;26542;-59
2020/12/01 04:33:40;;;;;;;63.95;27.07;;;;;;;-2.18;76.57;102401.41;1806062;79;28582;-58
2020/12/01 04:36:09;;;;;;;44.95;21.82;;;;;;;-2.14;76.76;102397.86;1796602;78;26138;-58
2020/12/01 04:38:37;;;;;;;65.22;27.58;;;;;;;-2.08;76.91;102398.69;1795140;78;25575;-58
2020/12/01 04:41:06;;;;;;;56.90;26.20;;;;;;;-2.12;76.26;102395.64;1824629;78;26463;-58
2020/12/01 04:43:40;;;;;;;51.80;24.07;;;;;;;-2.23;76.56;102394.42;1824222;78;26773;-58
2020/12/01 04:46:15;;;;;;;50.33;26.75;;;;;;;-2.30;76.90;102399.33;1806730;78;28539;-58
2020/12/01 04:48:53;;;;;;;45.38;22.32;;;;;;;-2.34;77.08;102402.00;1792132;80;25784;-58
2020/12/01 04:51:32;;;;;;;52.27;25.15;;;;;;;-2.34;77.10;102405.50;1796594;78;25651;-58
2020/12/01 04:54:23;;;;;;;49.98;23.60;;;;;;;-2.42;77.00;102406.01;1810699;78;26284;-58
2020/12/01 04:57:06;;;;;;;55.50;26.97;;;;;;;-2.55;77.10;102407.41;1793107;78;25638;-58
2020/12/01 04:59:56;;;;;;;47.80;23.55;;;;;;;-2.56;77.41;102414.02;1792400;80;28606;-58
2020/12/01 05:02:56;;;;;;;52.55;24.32;;;;;;;-2.49;77.49;102412.22;1822122;78;25624;-59
2020/12/01 05:06:10;;;;;;;52.20;25.23;;;;;;;-2.49;77.49;102419.67;1796878;78;25668;-59
2020/12/01 05:08:46;;;;;;;53.90;26.12;;;;;;;-2.55;77.46;102419.27;1799335;78;26509;-58
2020/12/01 05:11:26;;;;;;;56.75;26.62;;;;;;;-2.64;77.64;102427.69;1806262;79;26379;-59
2020/12/01 05:14:15;;;;;;;61.25;27.70;;;;;;;-2.67;77.64;102428.59;1782423;78;27530;-58
2020/12/01 05:16:54;;;;;;;45.40;23.40;;;;;;;-2.63;77.53;102433.40;1820813;78;26347;-59
2020/12/01 05:19:47;;;;;;;49.38;19.50;;;;;;;-2.64;77.46;102435.14;1821055;78;25678;-58
2020/12/01 05:22:19;;;;;;;41.77;20.37;;;;;;;-2.65;77.23;102436.05;1824723;78;25701;-59
2020/12/01 05:24:53;;;;;;;55.48;24.25;;;;;;;-2.75;77.50;102435.67;1802566;78;25791;-58
2020/12/01 05:27:34;;;;;;;56.37;23.50;;;;;;;-2.79;77.59;102428.66;1792591;78;27607;-59
2020/12/01 05:30:22;;;;;;;51.85;25.48;;;;;;;-2.72;77.90;102430.36;1787470;79;26021;-58
2020/12/01 05:32:59;;;;;;;47.15;21.93;;;;;;;-2.65;77.79;102420.67;1794436;79;25704;-58
2020/12/01 05:35:32;;;;;;;46.90;23.07;;;;;;;-2.68;77.25;102423.75;1783647;79;25668;-58
2020/12/01 05:38:17;;;;;;;49.30;25.30;;;;;;;-2.70;77.44;102429.50;1793186;79;25450;-58
2020/12/01 05:40:58;;;;;;;58.28;23.57;;;;;;;-2.65;77.66;102427.25;1794345;79;28424;-59
2020/12/01 05:43:38;;;;;;;58.13;25.52;;;;;;;-2.58;77.84;102435.12;1794423;79;25756;-59
2020/12/01 05:46:21;;;;;;;52.13;24.23;;;;;;;-2.47;78.12;102430.22;1786137;79;25697;-58
2020/12/01 05:49:00;;;;;;;55.20;24.18;;;;;;;-2.40;77.84;102427.96;1784318;79;25965;-58
2020/12/01 05:51:42;;;;;;;68.05;26.60;;;;;;;-2.34;77.57;102421.31;1763367;79;26091;-59
2020/12/01 05:54:24;;;;;;;61.50;26.80;;;;;;;-2.32;77.27;102420.87;1763947;79;28561;-58
2020/12/01 05:56:53;;;;;;;63.90;27.93;;;;;;;-2.31;77.09;102426.58;1762533;79;27003;-58
2020/12/01 05:59:24;;;;;;;56.42;26.68;;;;;;;-2.30;76.90;102428.33;1793770;79;25736;-58
2020/12/01 06:02:02;;;;;;;56.45;27.30;;;;;;;-2.28;76.97;102430.48;1794541;79;25619;-58
2020/12/01 06:04:33;;;;;;;60.08;25.97;;;;;;;-2.27;76.66;102427.42;1794344;79;26279;-59
2020/12/01 06:07:18;;;;;;;63.78;28.07;;;;;;;-2.29;76.60;102427.88;1764213;79;27520;-58
2020/12/01 06:10:21;;;;;;;65.37;28.52;;;;;;;-2.27;76.79;102424.33;1763085;81;26052;-59
2020/12/01 06:13:31;;;;;;;58.65;26.15;;;;;;;-2.22;76.92;102427.81;1789726;79;25618;-58
2020/12/01 06:16:16;;;;;;;59.77;27.20;;;;;;;-2.15;76.67;102419.38;1743622;81;25958;-58
2020/12/01 06:18:52;;;;;;;65.85;27.27;;;;;;;-2.20;76.08;102419.42;1794393;79;25597;-58
2020/12/01 06:21:28;;;;;;;63.58;27.82;;;;;;;-2.30;75.81;102415.14;1794400;79;27525;-58
2020/12/01 06:24:07;;;;;;;60.95;27.07;;;;;;;-2.41;75.93;102405.12;1780348;79;25836;-59
2020/12/01 06:26:53;;;;;;;62.48;26.97;;;;;;;-2.39;76.36;102413.45;1762461;79;25695;-59
2020/12/01 06:29:47;;;;;;;69.53;27.87;;;;;;;-2.45;76.39;102421.41;1759944;78;26509;-58
2020/12/01 06:32:40;;;;;;;72.03;30.62;;;;;;;-2.42;77.26;102433.69;1805920;79;26613;-59
2020/12/01 06:35:30;;;;;;;71.85;28.32;;;;;;;-2.34;77.46;102430.55;1790023;79;28457;-59
2020/12/01 06:38:12;;;;;;;49.30;23.42;;;;;;;-2.27;77.01;102432.69;1810325;79;26078;-59
2020/12/01 06:40:56;;;;;;;60.75;27.27;;;;;;;-2.30;76.46;102434.92;1809840;79;25441;-59
2020/12/01 06:43:32;;;;;;;54.00;25.52;;;;;;;-2.34;76.40;102435.81;1766344;80;32453;-59
2020/12/01 06:46:01;;;;;;;61.55;28.90;;;;;;;-2.43;76.39;102436.77;1791931;79;25712;-59
2020/12/01 06:48:45;;;;;;;65.05;27.35;;;;;;;-2.45;76.77;102445.12;1792894;79;27519;-59
2020/12/01 06:51:14;;;;;;;64.37;28.42;;;;;;;-2.34;77.17;102445.04;1791244;79;26195;-59
2020/12/01 06:53:42;;;;;;;50.63;24.45;;;;;;;-2.26;77.02;102441.89;1778728;79;25458;-60
2020/12/01 06:56:17;;;;;;;55.17;26.10;;;;;;;-2.31;76.39;102446.34;1778814;79;25703;-57
2020/12/01 06:58:49;;;;;;;57.25;27.17;;;;;;;-2.38;76.44;102441.55;1778534;79;26089;-58
2020/12/01 07:01:31;;;;;;;62.27;28.92;;;;;;;-2.44;76.54;102443.36;1778556;79;28282;-57
2020/12/01 07:04:22;;;;;;;54.03;23.20;;;;;;;-2.45;77.05;102447.77;1780441;79;25644;-59
2020/12/01 07:06:58;;;;;;;58.55;27.73;;;;;;;-2.45;76.99;102443.81;1778336;80;25742;-58
2020/12/01 07:09:45;;;;;;;62.30;28.42;;;;;;;-2.34;77.45;102444.18;1790049;79;26381;-58
2020/12/01 07:12:27;;;;;;;56.68;26.50;;;;;;;-2.17;77.74;102446.66;1790510;79;25671;-58
2020/12/01 07:15:03;;;;;;;61.88;28.32;;;;;;;-2.01;77.50;102436.41;1778609;79;27366;-58
2020/12/01 07:17:51;;;;;;;59.33;28.50;;;;;;;-1.93;77.12;102438.52;1778297;80;25632;-58
2020/12/01 07:21:06;;;;;;;60.10;24.75;;;;;;;-1.83;76.91;102440.64;1751332;80;25747;-58
2020/12/01 07:23:40;;;;;;;65.17;28.90;;;;;;;-1.82;76.12;102430.95;1749902;80;25677;-58
2020/12/01 07:26:40;;;;;;;66.42;29.50;;;;;;;-1.89;75.90;102432.34;1777159;80;25853;-58
2020/12/01 07:29:25;;;;;;;66.30;26.52;;;;;;;-1.86;76.05;102430.57;1767521;79;27552;-58
2020/12/01 07:32:21;;;;;;;52.33;24.52;;;;;;;-1.77;76.31;102433.12;1795376;78;25477;-59
2020/12/01 07:34:53;;;;;;;57.75;23.02;;;;;;;-1.68;75.64;102424.22;1751582;81;25516;-58
2020/12/01 07:37:38;;;;;;;53.10;24.52;;;;;;;-1.66;75.37;102426.40;1780015;79;26410;-59
2020/12/01 07:40:07;;;;;;;49.00;23.70;;;;;;;-1.60;75.68;102428.96;1790274;79;26132;-58
2020/12/01 07:42:37;;;;;;;49.67;23.90;;;;;;;-1.52;75.73;102423.15;1812323;79;28290;-58
2020/12/01 07:45:16;;;;;;;43.75;22.37;;;;;;;-1.43;75.59;102422.19;1812799;78;26157;-58
2020/12/01 07:47:44;;;;;;;49.15;23.30;;;;;;;-1.29;75.49;102421.55;1779230;79;25714;-59
2020/12/01 07:50:20;;;;;;;44.95;21.40;;;;;;;-1.29;74.72;102428.16;1779496;79;26494;-59
2020/12/01 07:53:00;;;;;;;38.58;19.80;;;;;;;-1.26;74.20;102429.91;1812949;79;26136;-59
2020/12/01 07:55:39;;;;;;;62.50;24.72;;;;;;;-1.25;74.24;102428.99;1812641;78;28513;-59
2020/12/01 07:58:17;;;;;;;46.48;21.85;;;;;;;-1.21;74.45;102431.17;1812835;79;26120;-59
2020/12/01 08:00:50;;;;;;;37.05;20.05;;;;;;;-1.12;74.35;102431.92;1812904;79;25662;-58
2020/12/01 08:03:29;;;;;;;40.67;20.08;;;;;;;-1.07;74.14;102424.37;1797126;78;25843;-58
2020/12/01 08:06:07;;;;;;;49.08;21.37;;;;;;;-0.99;74.04;102428.67;1788207;79;25637;-59
2020/12/01 08:08:40;;;;;;;45.00;21.60;;;;;;;-0.91;74.00;102427.69;1794745;79;27398;-59
2020/12/01 08:11:12;;;;;;;39.20;20.40;;;;;;;-0.85;73.90;102431.13;1760668;80;25714;-58
2020/12/01 08:13:42;;;;;;;46.40;23.20;;;;;;;-0.80;73.24;102425.31;1768847;80;25733;-59
2020/12/01 08:16:24;;;;;;;42.25;21.55;;;;;;;-0.72;73.72;102423.03;1776739;80;26237;-58
2020/12/01 08:18:54;;;;;;;41.48;20.88;;;;;;;-0.65;73.45;102422.03;1757702;80;25694;-58
2020/12/01 08:21:27;;;;;;;36.28;19.73;;;;;;;-0.59;72.89;102414.47;1746152;82;28481;-59
2020/12/01 08:24:01;;;;;;;40.70;21.35;;;;;;;-0.58;72.53;102414.89;1745941;79;53345;-58
2020/12/01 08:26:36;;;;;;;43.05;20.52;;;;;;;-0.55;72.45;102408.22;1745754;82;25514;-58
2020/12/01 08:29:21;;;;;;;35.83;19.20;;;;;;;-0.48;72.49;102404.57;1745423;80;26523;-58
2020/12/01 08:32:13;;;;;;;32.53;18.67;;;;;;;-0.35;71.62;102396.88;1740408;81;25621;-58
2020/12/01 08:34:53;;;;;;;28.17;15.65;;;;;;;-0.30;71.19;102396.80;1763338;81;28420;-58
2020/12/01 08:37:56;;;;;;;31.50;17.25;;;;;;;-0.27;70.89;102395.87;1751683;81;25698;-58
2020/12/01 08:40:47;;;;;;;36.93;19.17;;;;;;;-0.33;69.87;102395.52;1676979;84;25780;-58
2020/12/01 08:43:50;;;;;;;36.33;18.55;;;;;;;-0.42;69.95;102399.64;1735579;82;26418;-58
2020/12/01 08:46:27;;;;;;;40.70;19.23;;;;;;;-0.49;70.37;102395.78;1744317;81;25692;-58
2020/12/01 08:49:23;;;;;;;38.00;18.95;;;;;;;-0.34;70.95;102395.09;1728661;82;27524;-58
2020/12/01 08:51:57;;;;;;;32.10;15.88;;;;;;;-0.21;70.79;102395.33;1702224;82;26147;-58
2020/12/01 08:54:33;;;;;;;29.85;16.48;;;;;;;-0.07;70.23;102388.47;1737482;81;25632;-58
2020/12/01 08:57:08;;;;;;;35.35;16.80;;;;;;;-0.06;70.09;102380.06;1757438;81;25771;-58
2020/12/01 09:00:07;;;;;;;30.15;16.60;;;;;;;0.14;69.89;102387.19;1756092;81;25747;-58
2020/12/01 09:02:42;;;;;;;33.10;17.27;;;;;;;0.23;68.90;102383.95;1731813;82;27596;-58
2020/12/01 09:05:33;;;;;;;30.10;16.27;;;;;;;0.17;68.27;102372.17;1729976;82;26579;-58
2020/12/01 09:14:07;;;;;;;36.80;17.65;;;;;;;0.34;68.61;102358.58;1833305;78;25616;-58
2020/12/01 09:16:42;;;;;;;30.70;16.35;;;;;;;0.26;68.47;102356.11;1804603;79;25488;-58
2020/12/01 09:19:43;;;;;;;31.02;16.45;;;;;;;0.34;68.59;102357.25;1803652;79;27603;-58
2020/12/01 09:21:55;;;;;;;29.90;16.40;;;;;;;0.41;67.36;102351.81;1799804;79;25713;-58
2020/12/01 09:24:28;;;;;;;36.35;17.87;;;;;;;0.99;67.09;102343.95;1805477;79;25792;-58
2020/12/01 09:27:04;;;;;;;35.10;17.12;;;;;;;1.81;65.45;102333.52;1805803;79;25804;-58
2020/12/01 09:29:33;;;;;;;32.58;18.85;;;;;;;2.01;63.98;102328.99;1804588;79;25721;-59
2020/12/01 09:32:05;;;;;;;33.38;18.48;;;;;;;1.65;64.08;102336.17;1779003;79;27625;-58
2020/12/01 09:34:35;;;;;;;30.10;16.50;;;;;;;1.35;64.44;102337.35;1773661;80;25738;-58
2020/12/01 09:37:04;;;;;;;33.70;16.77;;;;;;;1.23;65.15;102334.09;1773893;80;25573;-58
2020/12/01 09:39:32;;;;;;;33.25;16.62;;;;;;;1.56;64.51;102330.63;1802808;79;26187;-59
2020/12/01 09:42:09;;;;;;;31.35;16.97;;;;;;;1.56;64.23;102332.84;1805657;79;25695;-58
2020/12/01 09:47:11;;;;;;;30.50;16.15;;;;;;;1.30;62.46;102330.84;1804050;79;26580;-58
2020/12/01 09:49:37;;;;;;;31.45;16.15;;;;;;;1.07;63.94;102332.72;1803812;79;25487;-58
2020/12/01 09:52:12;;;;;;;32.35;15.93;;;;;;;0.99;63.57;102326.72;1803942;79;26217;-58
2020/12/01 09:54:52;;;;;;;32.50;17.37;;;;;;;1.68;64.77;102322.80;1803111;79;25452;-59
2020/12/01 09:57:31;;;;;;;34.35;18.45;;;;;;;2.09;64.19;102326.58;1802887;79;27608;-58
2020/12/01 10:00:06;;;;;;;32.90;16.62;;;;;;;2.09;61.68;102315.95;1774469;79;26283;-58
2020/12/01 10:12:55;;;;;;;32.28;15.70;;;;;;;1.68;62.84;102317.06;1769053;80;25638;-58
2020/12/01 10:26:04;;;;;;;30.85;17.20;;;;;;;1.83;62.16;102299.86;1762366;80;25738;-58
2020/12/01 10:36:27;;;;;;;30.57;17.27;;;;;;;1.81;63.04;102292.39;1764581;79;28498;-57
2020/12/01 10:38:55;;;;;;;30.50;16.70;;;;;;;1.90;62.17;102290.39;1783164;79;26159;-58
2020/12/01 10:41:30;;;;;;;31.62;17.67;;;;;;;1.93;62.01;102293.83;1767907;79;25715;-58
2020/12/01 10:44:09;;;;;;;32.23;17.10;;;;;;;2.01;60.04;102286.99;1831519;76;25502;-58
2020/12/01 10:46:37;;;;;;;33.28;17.35;;;;;;;2.03;61.58;102283.81;1800877;78;25765;-58
2020/12/01 10:49:05;;;;;;;33.00;16.37;;;;;;;2.56;62.22;102279.17;1803872;79;27515;-58
2020/12/01 10:51:35;;;;;;;28.55;16.75;;;;;;;3.15;61.04;102285.75;1735221;82;25798;-57
2020/12/01 10:54:03;;;;;;;27.58;15.75;;;;;;;3.38;61.46;102279.66;1735390;82;25694;-57
2020/12/01 10:56:31;;;;;;;23.22;14.95;;;;;;;4.11;60.31;102271.30;1735314;82;25742;-57
2020/12/01 10:58:59;;;;;;;29.52;15.48;;;;;;;4.19;59.26;102276.33;1735422;82;25638;-57
2020/12/01 11:01:27;;;;;;;32.40;17.30;;;;;;;3.97;58.62;102273.14;1734604;82;27611;-57
2020/12/01 11:03:55;;;;;;;40.48;19.75;;;;;;;3.64;57.34;102273.41;1682986;83;25784;-57
2020/12/01 11:06:23;;;;;;;26.45;16.45;;;;;;;3.41;57.54;102268.45;1711158;83;25675;-57
2020/12/01 11:08:52;;;;;;;31.45;17.52;;;;;;;3.15;58.09;102271.13;1736912;82;26163;-57
2020/12/01 11:11:20;;;;;;;27.62;15.40;;;;;;;2.75;58.45;102270.63;1736088;82;25648;-57
2020/12/01 11:13:48;;;;;;;33.35;18.32;;;;;;;2.67;59.72;102266.88;1740836;82;27620;-57
2020/12/01 11:16:16;;;;;;;25.72;14.47;;;;;;;2.78;60.19;102274.53;1740878;82;25441;-57
2020/12/01 11:18:44;;;;;;;30.17;16.52;;;;;;;2.86;60.47;102270.27;1767586;81;25652;-57
2020/12/01 11:21:12;;;;;;;26.50;15.15;;;;;;;2.70;59.52;102264.13;1732744;82;25680;-57
2020/12/01 11:23:42;;;;;;;32.70;16.02;;;;;;;2.65;59.03;102267.37;1741006;82;25727;-57
2020/12/01 11:26:20;;;;;;;30.20;15.03;;;;;;;3.13;59.81;102258.74;1737947;81;27537;-57
2020/12/01 11:28:48;;;;;;;29.30;15.38;;;;;;;3.37;59.25;102253.97;1721315;81;26138;-58
2020/12/01 11:31:18;;;;;;;28.23;15.80;;;;;;;3.39;58.19;102256.13;1736841;82;25621;-57
2020/12/01 11:34:08;;;;;;;32.23;17.10;;;;;;;3.29;58.88;102251.56;1739164;81;26201;-57
2020/12/01 11:36:39;;;;;;;36.68;17.75;;;;;;;3.05;58.09;102247.49;1711540;82;25723;-58
2020/12/01 11:39:12;;;;;;;44.35;26.27;;;;;;;2.95;58.93;102250.05;1735011;82;28533;-58
2020/12/01 11:41:41;;;;;;;32.33;17.23;;;;;;;2.93;59.42;102248.77;1761777;81;26158;-57
2020/12/01 11:44:12;;;;;;;31.65;16.17;;;;;;;2.92;59.38;102248.36;1781487;80;25644;-57
2020/12/01 11:46:41;;;;;;;24.75;15.20;;;;;;;3.01;58.82;102239.20;1742090;80;25742;-58
2020/12/01 11:49:10;;;;;;;35.17;14.95;;;;;;;2.90;58.71;102242.69;1719204;82;26193;-58
2020/12/01 11:51:41;;;;;;;28.57;14.25;;;;;;;2.85;58.52;102238.86;1718999;83;28932;-58
2020/12/01 11:54:11;;;;;;;43.60;15.95;;;;;;;2.69;58.79;102234.96;1718779;83;25840;-57
2020/12/01 11:56:39;;;;;;;28.30;15.48;;;;;;;2.50;59.18;102239.52;1732944;80;25711;-58
2020/12/01 11:59:07;;;;;;;27.25;15.63;;;;;;;2.33;59.52;102238.23;1715302;83;25587;-57
2020/12/01 12:01:36;;;;;;;28.42;14.33;;;;;;;2.25;59.89;102238.92;1715429;83;25606;-58
2020/12/01 12:04:06;;;;;;;25.85;14.07;;;;;;;2.17;60.29;102240.94;1715454;83;27543;-57
2020/12/01 12:06:37;;;;;;;31.27;13.60;;;;;;;2.21;60.70;102233.75;1715299;83;25655;-58
2020/12/01 12:09:08;;;;;;;25.90;14.80;;;;;;;2.23;60.40;102238.12;1718062;83;25648;-58
2020/12/01 12:11:36;;;;;;;25.00;13.55;;;;;;;2.16;60.36;102244.06;1705543;83;25683;-58
2020/12/01 12:14:06;;;;;;;26.57;15.05;;;;;;;2.02;60.13;102240.92;1705334;84;25668;-57
2020/12/01 12:16:34;;;;;;;33.98;16.82;;;;;;;1.90;60.73;102236.84;1705488;83;26674;-58
2020/12/01 12:19:02;;;;;;;33.88;18.05;;;;;;;1.78;61.07;102231.44;1688478;84;25702;-58
2020/12/01 12:21:30;;;;;;;36.00;18.35;;;;;;;1.75;61.27;102231.98;1718553;83;25453;-57